sensor_id;sensor_type;location;lat;lon;timestamp;temperature;humidity
47600;DHT22;33323;52.124;6.018;2023-05-10T00:00:55;13.40;99.90
47600;DHT22;33323;52.124;6.018;2023-05-10T00:03:22;13.30;99.90
47600;DHT22;33323;52.124;6.018;2023-05-10T00:05:49;13.30;99.90
47600;DHT22;33323;52.124;6.018;2023-05-10T00:08:16;13.40;99.90
47600;DHT22;33323;52.124;6.018;2023-05-10T00:10:43;13.30;99.90
47600;DHT22;33323;52.124;6.018;2023-05-10T00:13:10;13.30;99.90
47600;DHT22;33323;52.124;6.018;2023-05-10T00:15:37;13.40;99.90
47600;DHT22;33323;52.124;6.018;2023-05-10T00:18:05;13.40;99.90
47600;DHT22;33323;52.124;6.018;2023-05-10T00:20:32;13.40;99.90
47600;DHT22;33323;52.124;6.018;2023-05-10T00:22:59;13.40;99.90
47600;DHT22;33323;52.124;6.018;2023-05-10T00:25:26;13.50;99.90
47600;DHT22;33323;52.124;6.018;2023-05-10T00:27:53;13.50;99.90
47600;DHT22;33323;52.124;6.018;2023-05-10T00:30:21;13.50;99.90
47600;DHT22;33323;52.124;6.018;2023-05-10T00:32:48;13.50;99.90
47600;DHT22;33323;52.124;6.018;2023-05-10T00:35:16;13.50;99.90
47600;DHT22;33323;52.124;6.018;2023-05-10T00:37:43;13.40;99.90
47600;DHT22;33323;52.124;6.018;2023-05-10T00:40:11;13.40;99.90
47600;DHT22;33323;52.124;6.018;2023-05-10T00:42:40;13.30;99.90
47600;DHT22;33323;52.124;6.018;2023-05-10T00:45:07;13.40;99.90
47600;DHT22;33323;52.124;6.018;2023-05-10T00:47:35;13.40;99.90
47600;DHT22;33323;52.124;6.018;2023-05-10T00:50:02;13.40;99.90
47600;DHT22;33323;52.124;6.018;2023-05-10T00:52:30;13.40;99.90
47600;DHT22;33323;52.124;6.018;2023-05-10T00:54:58;13.50;99.90
47600;DHT22;33323;52.124;6.018;2023-05-10T00:57:25;13.50;99.90
47600;DHT22;33323;52.124;6.018;2023-05-10T00:59:52;13.50;99.90
47600;DHT22;33323;52.124;6.018;2023-05-10T01:02:20;13.50;99.90
47600;DHT22;33323;52.124;6.018;2023-05-10T01:04:47;13.40;99.90
47600;DHT22;33323;52.124;6.018;2023-05-10T01:07:15;13.50;99.90
47600;DHT22;33323;52.124;6.018;2023-05-10T01:09:42;13.50;99.90
47600;DHT22;33323;52.124;6.018;2023-05-10T01:12:11;13.50;99.90
47600;DHT22;33323;52.124;6.018;2023-05-10T01:14:38;13.50;99.90
47600;DHT22;33323;52.124;6.018;2023-05-10T01:17:06;13.50;99.90
47600;DHT22;33323;52.124;6.018;2023-05-10T01:19:34;13.50;99.90
47600;DHT22;33323;52.124;6.018;2023-05-10T01:31:30;13.60;99.90
47600;DHT22;33323;52.124;6.018;2023-05-10T01:34:07;13.60;99.90
47600;DHT22;33323;52.124;6.018;2023-05-10T01:36:45;13.40;99.90
47600;DHT22;33323;52.124;6.018;2023-05-10T01:39:25;13.50;99.90
47600;DHT22;33323;52.124;6.018;2023-05-10T01:42:09;13.50;99.90
47600;DHT22;33323;52.124;6.018;2023-05-10T01:50:35;13.60;99.90
47600;DHT22;33323;52.124;6.018;2023-05-10T01:53:07;13.60;99.90
47600;DHT22;33323;52.124;6.018;2023-05-10T01:55:46;13.50;99.90
47600;DHT22;33323;52.124;6.018;2023-05-10T01:58:44;13.40;99.90
47600;DHT22;33323;52.124;6.018;2023-05-10T02:01:15;13.40;99.90
47600;DHT22;33323;52.124;6.018;2023-05-10T02:03:43;13.40;99.90
47600;DHT22;33323;52.124;6.018;2023-05-10T02:06:13;13.30;99.90
47600;DHT22;33323;52.124;6.018;2023-05-10T02:08:41;13.20;99.90
47600;DHT22;33323;52.124;6.018;2023-05-10T02:11:13;13.30;99.90
47600;DHT22;33323;52.124;6.018;2023-05-10T02:13:41;13.30;99.90
47600;DHT22;33323;52.124;6.018;2023-05-10T02:16:11;13.20;99.90
47600;DHT22;33323;52.124;6.018;2023-05-10T02:18:39;13.30;99.90
47600;DHT22;33323;52.124;6.018;2023-05-10T02:21:08;13.30;99.90
47600;DHT22;33323;52.124;6.018;2023-05-10T02:23:39;13.30;99.90
47600;DHT22;33323;52.124;6.018;2023-05-10T02:26:06;13.20;99.90
47600;DHT22;33323;52.124;6.018;2023-05-10T02:28:35;13.20;99.90
47600;DHT22;33323;52.124;6.018;2023-05-10T02:31:05;13.20;99.90
47600;DHT22;33323;52.124;6.018;2023-05-10T02:33:33;13.20;99.90
47600;DHT22;33323;52.124;6.018;2023-05-10T02:36:02;13.20;99.90
47600;DHT22;33323;52.124;6.018;2023-05-10T02:38:31;13.20;99.90
47600;DHT22;33323;52.124;6.018;2023-05-10T02:41:00;13.20;99.90
47600;DHT22;33323;52.124;6.018;2023-05-10T02:43:30;13.20;99.90
47600;DHT22;33323;52.124;6.018;2023-05-10T02:45:59;13.30;99.90
47600;DHT22;33323;52.124;6.018;2023-05-10T02:48:26;13.30;99.90
47600;DHT22;33323;52.124;6.018;2023-05-10T02:50:55;13.30;99.90
47600;DHT22;33323;52.124;6.018;2023-05-10T02:53:33;13.30;99.90
47600;DHT22;33323;52.124;6.018;2023-05-10T02:56:05;13.30;99.90
47600;DHT22;33323;52.124;6.018;2023-05-10T02:58:40;13.20;99.90
47600;DHT22;33323;52.124;6.018;2023-05-10T03:01:06;13.30;99.90
47600;DHT22;33323;52.124;6.018;2023-05-10T03:03:37;13.20;99.90
47600;DHT22;33323;52.124;6.018;2023-05-10T03:06:04;13.20;99.90
47600;DHT22;33323;52.124;6.018;2023-05-10T03:08:32;13.20;99.90
47600;DHT22;33323;52.124;6.018;2023-05-10T03:19:47;13.20;99.90
47600;DHT22;33323;52.124;6.018;2023-05-10T03:22:51;13.20;99.90
47600;DHT22;33323;52.124;6.018;2023-05-10T03:25:21;13.20;99.90
47600;DHT22;33323;52.124;6.018;2023-05-10T03:27:51;13.10;99.90
47600;DHT22;33323;52.124;6.018;2023-05-10T03:30:19;13.10;99.90
47600;DHT22;33323;52.124;6.018;2023-05-10T03:32:46;13.20;99.90
47600;DHT22;33323;52.124;6.018;2023-05-10T03:35:16;13.10;99.90
47600;DHT22;33323;52.124;6.018;2023-05-10T03:37:43;13.10;99.90
47600;DHT22;33323;52.124;6.018;2023-05-10T03:40:11;13.10;99.90
47600;DHT22;33323;52.124;6.018;2023-05-10T03:42:40;13.10;99.90
47600;DHT22;33323;52.124;6.018;2023-05-10T03:45:08;13.00;99.90
47600;DHT22;33323;52.124;6.018;2023-05-10T03:47:36;13.10;99.90
47600;DHT22;33323;52.124;6.018;2023-05-10T03:50:04;13.10;99.90
47600;DHT22;33323;52.124;6.018;2023-05-10T03:52:32;13.00;99.90
47600;DHT22;33323;52.124;6.018;2023-05-10T03:54:59;13.00;99.90
47600;DHT22;33323;52.124;6.018;2023-05-10T03:57:26;13.00;99.90
47600;DHT22;33323;52.124;6.018;2023-05-10T03:59:53;13.00;99.90
47600;DHT22;33323;52.124;6.018;2023-05-10T04:02:20;13.00;99.90
47600;DHT22;33323;52.124;6.018;2023-05-10T04:04:47;13.00;99.90
47600;DHT22;33323;52.124;6.018;2023-05-10T04:07:14;13.00;99.90
47600;DHT22;33323;52.124;6.018;2023-05-10T04:09:42;12.90;99.90
47600;DHT22;33323;52.124;6.018;2023-05-10T04:12:09;12.90;99.90
47600;DHT22;33323;52.124;6.018;2023-05-10T04:14:36;12.90;99.90
47600;DHT22;33323;52.124;6.018;2023-05-10T04:17:03;13.00;99.90
47600;DHT22;33323;52.124;6.018;2023-05-10T04:19:31;13.00;99.90
47600;DHT22;33323;52.124;6.018;2023-05-10T04:21:58;13.00;99.90
47600;DHT22;33323;52.124;6.018;2023-05-10T04:24:26;13.00;99.90
47600;DHT22;33323;52.124;6.018;2023-05-10T04:26:54;13.00;99.90
47600;DHT22;33323;52.124;6.018;2023-05-10T04:29:23;13.00;99.90
47600;DHT22;33323;52.124;6.018;2023-05-10T04:31:50;13.10;99.90
47600;DHT22;33323;52.124;6.018;2023-05-10T04:34:17;13.10;99.90
47600;DHT22;33323;52.124;6.018;2023-05-10T04:36:45;13.00;99.90
47600;DHT22;33323;52.124;6.018;2023-05-10T04:39:12;13.10;99.90
47600;DHT22;33323;52.124;6.018;2023-05-10T04:41:40;13.10;99.90
47600;DHT22;33323;52.124;6.018;2023-05-10T04:44:07;13.10;99.90
47600;DHT22;33323;52.124;6.018;2023-05-10T04:46:34;13.10;99.90
47600;DHT22;33323;52.124;6.018;2023-05-10T04:49:01;13.00;99.90
47600;DHT22;33323;52.124;6.018;2023-05-10T04:51:28;13.00;99.90
47600;DHT22;33323;52.124;6.018;2023-05-10T04:53:55;12.90;99.90
47600;DHT22;33323;52.124;6.018;2023-05-10T04:56:32;12.90;99.90
47600;DHT22;33323;52.124;6.018;2023-05-10T04:58:59;12.90;99.90
47600;DHT22;33323;52.124;6.018;2023-05-10T05:01:27;12.90;99.90
47600;DHT22;33323;52.124;6.018;2023-05-10T05:03:54;13.00;99.90
47600;DHT22;33323;52.124;6.018;2023-05-10T05:06:21;12.90;99.90
47600;DHT22;33323;52.124;6.018;2023-05-10T05:08:48;12.80;99.90
47600;DHT22;33323;52.124;6.018;2023-05-10T05:11:17;12.90;99.90
47600;DHT22;33323;52.124;6.018;2023-05-10T05:13:44;12.90;99.90
47600;DHT22;33323;52.124;6.018;2023-05-10T05:16:11;12.90;99.90
47600;DHT22;33323;52.124;6.018;2023-05-10T05:18:38;12.90;99.90
47600;DHT22;33323;52.124;6.018;2023-05-10T05:21:19;12.80;99.90
47600;DHT22;33323;52.124;6.018;2023-05-10T05:23:46;12.70;99.90
47600;DHT22;33323;52.124;6.018;2023-05-10T05:26:13;12.80;99.90
47600;DHT22;33323;52.124;6.018;2023-05-10T05:28:42;12.80;99.90
47600;DHT22;33323;52.124;6.018;2023-05-10T05:31:08;12.90;99.90
47600;DHT22;33323;52.124;6.018;2023-05-10T05:33:36;12.90;99.90
47600;DHT22;33323;52.124;6.018;2023-05-10T05:36:04;12.80;99.90
47600;DHT22;33323;52.124;6.018;2023-05-10T05:38:32;12.90;99.90
47600;DHT22;33323;52.124;6.018;2023-05-10T05:40:59;12.90;99.90
47600;DHT22;33323;52.124;6.018;2023-05-10T05:43:26;12.90;99.90
47600;DHT22;33323;52.124;6.018;2023-05-10T05:45:53;12.90;99.90
47600;DHT22;33323;52.124;6.018;2023-05-10T05:48:21;13.00;99.90
47600;DHT22;33323;52.124;6.018;2023-05-10T05:50:48;13.00;99.90
47600;DHT22;33323;52.124;6.018;2023-05-10T05:53:15;12.90;99.90
47600;DHT22;33323;52.124;6.018;2023-05-10T05:55:55;13.00;99.90
47600;DHT22;33323;52.124;6.018;2023-05-10T05:58:27;13.10;99.90
47600;DHT22;33323;52.124;6.018;2023-05-10T06:00:54;13.20;99.90
47600;DHT22;33323;52.124;6.018;2023-05-10T06:03:21;13.20;99.90
47600;DHT22;33323;52.124;6.018;2023-05-10T06:05:48;13.30;99.90
47600;DHT22;33323;52.124;6.018;2023-05-10T06:08:15;13.40;99.90
47600;DHT22;33323;52.124;6.018;2023-05-10T06:10:43;13.40;99.90
47600;DHT22;33323;52.124;6.018;2023-05-10T06:13:11;13.50;99.90
47600;DHT22;33323;52.124;6.018;2023-05-10T06:15:38;13.50;99.90
47600;DHT22;33323;52.124;6.018;2023-05-10T06:18:05;13.50;99.90
47600;DHT22;33323;52.124;6.018;2023-05-10T06:20:32;13.40;99.90
47600;DHT22;33323;52.124;6.018;2023-05-10T06:22:59;13.40;99.90
47600;DHT22;33323;52.124;6.018;2023-05-10T06:25:26;13.40;99.90
47600;DHT22;33323;52.124;6.018;2023-05-10T06:27:53;13.40;99.90
47600;DHT22;33323;52.124;6.018;2023-05-10T06:30:25;13.20;99.90
47600;DHT22;33323;52.124;6.018;2023-05-10T06:32:56;13.30;99.90
47600;DHT22;33323;52.124;6.018;2023-05-10T06:35:23;13.30;99.90
47600;DHT22;33323;52.124;6.018;2023-05-10T06:37:51;13.40;99.90
47600;DHT22;33323;52.124;6.018;2023-05-10T06:40:18;13.30;99.90
47600;DHT22;33323;52.124;6.018;2023-05-10T06:42:47;13.30;99.90
47600;DHT22;33323;52.124;6.018;2023-05-10T06:45:15;13.30;99.90
47600;DHT22;33323;52.124;6.018;2023-05-10T06:47:43;13.30;99.90
47600;DHT22;33323;52.124;6.018;2023-05-10T06:50:10;13.40;99.90
47600;DHT22;33323;52.124;6.018;2023-05-10T06:52:38;13.40;99.90
47600;DHT22;33323;52.124;6.018;2023-05-10T06:55:06;13.30;99.90
47600;DHT22;33323;52.124;6.018;2023-05-10T06:57:33;13.40;99.90
47600;DHT22;33323;52.124;6.018;2023-05-10T07:00:02;13.50;99.90
47600;DHT22;33323;52.124;6.018;2023-05-10T07:02:30;13.40;99.90
47600;DHT22;33323;52.124;6.018;2023-05-10T07:04:58;13.30;99.90
47600;DHT22;33323;52.124;6.018;2023-05-10T07:07:29;13.30;99.90
47600;DHT22;33323;52.124;6.018;2023-05-10T07:09:56;13.30;99.90
47600;DHT22;33323;52.124;6.018;2023-05-10T07:12:24;13.40;99.90
47600;DHT22;33323;52.124;6.018;2023-05-10T07:14:52;13.40;99.90
47600;DHT22;33323;52.124;6.018;2023-05-10T07:17:19;13.50;99.90
47600;DHT22;33323;52.124;6.018;2023-05-10T07:19:46;13.50;99.90
47600;DHT22;33323;52.124;6.018;2023-05-10T07:22:15;13.40;99.90
47600;DHT22;33323;52.124;6.018;2023-05-10T07:24:43;13.40;99.90
47600;DHT22;33323;52.124;6.018;2023-05-10T07:27:10;13.40;99.90
47600;DHT22;33323;52.124;6.018;2023-05-10T07:29:38;13.30;99.90
47600;DHT22;33323;52.124;6.018;2023-05-10T07:32:06;13.30;99.90
47600;DHT22;33323;52.124;6.018;2023-05-10T07:34:33;13.40;99.90
47600;DHT22;33323;52.124;6.018;2023-05-10T07:37:00;13.40;99.90
47600;DHT22;33323;52.124;6.018;2023-05-10T07:39:28;13.50;99.90
47600;DHT22;33323;52.124;6.018;2023-05-10T07:41:55;13.50;99.90
47600;DHT22;33323;52.124;6.018;2023-05-10T07:44:23;13.50;99.90
47600;DHT22;33323;52.124;6.018;2023-05-10T07:46:50;13.50;99.90
47600;DHT22;33323;52.124;6.018;2023-05-10T07:49:17;13.50;99.90
47600;DHT22;33323;52.124;6.018;2023-05-10T07:51:45;13.50;99.90
47600;DHT22;33323;52.124;6.018;2023-05-10T07:54:11;13.50;99.90
47600;DHT22;33323;52.124;6.018;2023-05-10T07:56:39;13.50;99.90
47600;DHT22;33323;52.124;6.018;2023-05-10T07:59:15;13.50;99.90
47600;DHT22;33323;52.124;6.018;2023-05-10T08:01:44;13.50;99.90
47600;DHT22;33323;52.124;6.018;2023-05-10T08:04:11;13.60;99.90
47600;DHT22;33323;52.124;6.018;2023-05-10T08:06:39;13.60;99.90
47600;DHT22;33323;52.124;6.018;2023-05-10T08:09:07;13.50;99.90
47600;DHT22;33323;52.124;6.018;2023-05-10T08:11:35;13.60;99.90
47600;DHT22;33323;52.124;6.018;2023-05-10T08:14:02;13.60;99.90
47600;DHT22;33323;52.124;6.018;2023-05-10T08:16:29;13.70;99.90
47600;DHT22;33323;52.124;6.018;2023-05-10T08:18:56;13.70;99.90
47600;DHT22;33323;52.124;6.018;2023-05-10T08:21:23;13.80;99.90
47600;DHT22;33323;52.124;6.018;2023-05-10T08:23:51;13.80;99.90
47600;DHT22;33323;52.124;6.018;2023-05-10T08:26:18;14.10;99.90
47600;DHT22;33323;52.124;6.018;2023-05-10T08:28:45;14.10;99.90
47600;DHT22;33323;52.124;6.018;2023-05-10T08:31:12;14.20;99.90
47600;DHT22;33323;52.124;6.018;2023-05-10T08:33:39;14.30;99.90
47600;DHT22;33323;52.124;6.018;2023-05-10T08:36:08;14.30;99.90
47600;DHT22;33323;52.124;6.018;2023-05-10T08:38:35;14.30;99.90
47600;DHT22;33323;52.124;6.018;2023-05-10T08:41:04;14.20;99.90
47600;DHT22;33323;52.124;6.018;2023-05-10T08:43:32;14.20;99.90
47600;DHT22;33323;52.124;6.018;2023-05-10T08:46:02;14.20;99.90
47600;DHT22;33323;52.124;6.018;2023-05-10T08:48:34;14.30;99.90
47600;DHT22;33323;52.124;6.018;2023-05-10T08:51:02;14.30;99.90
47600;DHT22;33323;52.124;6.018;2023-05-10T08:53:31;14.20;99.90
47600;DHT22;33323;52.124;6.018;2023-05-10T08:56:01;14.10;99.90
47600;DHT22;33323;52.124;6.018;2023-05-10T08:58:29;14.10;99.90
47600;DHT22;33323;52.124;6.018;2023-05-10T09:00:57;14.10;99.90
47600;DHT22;33323;52.124;6.018;2023-05-10T09:03:24;14.10;99.90
47600;DHT22;33323;52.124;6.018;2023-05-10T09:05:52;14.20;99.90
47600;DHT22;33323;52.124;6.018;2023-05-10T09:08:19;14.20;99.90
47600;DHT22;33323;52.124;6.018;2023-05-10T09:10:47;14.30;99.90
47600;DHT22;33323;52.124;6.018;2023-05-10T09:13:15;14.30;99.90
47600;DHT22;33323;52.124;6.018;2023-05-10T09:15:44;14.30;99.90
47600;DHT22;33323;52.124;6.018;2023-05-10T09:18:12;14.50;99.90
47600;DHT22;33323;52.124;6.018;2023-05-10T09:20:40;14.80;99.90
47600;DHT22;33323;52.124;6.018;2023-05-10T09:23:07;14.70;99.90
47600;DHT22;33323;52.124;6.018;2023-05-10T09:25:35;14.80;99.90
47600;DHT22;33323;52.124;6.018;2023-05-10T09:28:02;14.80;99.90
47600;DHT22;33323;52.124;6.018;2023-05-10T09:30:33;14.80;99.90
47600;DHT22;33323;52.124;6.018;2023-05-10T09:33:00;14.60;99.90
47600;DHT22;33323;52.124;6.018;2023-05-10T09:35:31;14.70;99.90
47600;DHT22;33323;52.124;6.018;2023-05-10T09:38:05;14.70;99.90
47600;DHT22;33323;52.124;6.018;2023-05-10T09:40:32;14.80;99.90
47600;DHT22;33323;52.124;6.018;2023-05-10T09:43:01;14.70;99.90
47600;DHT22;33323;52.124;6.018;2023-05-10T09:45:34;14.70;99.90
47600;DHT22;33323;52.124;6.018;2023-05-10T09:48:05;14.90;99.90
47600;DHT22;33323;52.124;6.018;2023-05-10T09:50:33;15.10;99.90
47600;DHT22;33323;52.124;6.018;2023-05-10T09:53:02;15.20;99.90
47600;DHT22;33323;52.124;6.018;2023-05-10T09:55:44;14.90;99.90
47600;DHT22;33323;52.124;6.018;2023-05-10T09:58:13;15.00;99.90
47600;DHT22;33323;52.124;6.018;2023-05-10T10:00:42;15.20;99.90
47600;DHT22;33323;52.124;6.018;2023-05-10T10:03:15;15.30;99.90
47600;DHT22;33323;52.124;6.018;2023-05-10T10:05:44;15.20;99.90
47600;DHT22;33323;52.124;6.018;2023-05-10T10:08:12;15.30;99.90
47600;DHT22;33323;52.124;6.018;2023-05-10T10:10:41;15.20;99.90
47600;DHT22;33323;52.124;6.018;2023-05-10T10:13:12;15.10;99.90
47600;DHT22;33323;52.124;6.018;2023-05-10T10:15:42;15.10;99.90
47600;DHT22;33323;52.124;6.018;2023-05-10T10:18:14;15.10;99.90
47600;DHT22;33323;52.124;6.018;2023-05-10T10:20:44;15.00;99.90
47600;DHT22;33323;52.124;6.018;2023-05-10T10:23:12;14.80;99.90
47600;DHT22;33323;52.124;6.018;2023-05-10T10:25:42;14.60;99.90
47600;DHT22;33323;52.124;6.018;2023-05-10T10:28:21;14.60;99.90
47600;DHT22;33323;52.124;6.018;2023-05-10T10:30:55;14.70;99.90
47600;DHT22;33323;52.124;6.018;2023-05-10T10:35:59;14.90;99.90
47600;DHT22;33323;52.124;6.018;2023-05-10T10:41:34;15.00;99.90
47600;DHT22;33323;52.124;6.018;2023-05-10T10:54:52;14.90;99.90
47600;DHT22;33323;52.124;6.018;2023-05-10T10:57:20;15.00;99.90
47600;DHT22;33323;52.124;6.018;2023-05-10T10:59:48;15.00;99.90
47600;DHT22;33323;52.124;6.018;2023-05-10T11:02:42;15.00;99.90
47600;DHT22;33323;52.124;6.018;2023-05-10T11:07:58;15.10;99.90
47600;DHT22;33323;52.124;6.018;2023-05-10T11:10:27;15.20;99.90
47600;DHT22;33323;52.124;6.018;2023-05-10T11:13:01;15.40;99.90
47600;DHT22;33323;52.124;6.018;2023-05-10T11:15:37;15.70;99.90
47600;DHT22;33323;52.124;6.018;2023-05-10T11:18:26;16.00;99.90
47600;DHT22;33323;52.124;6.018;2023-05-10T11:21:01;16.50;99.90
47600;DHT22;33323;52.124;6.018;2023-05-10T11:23:48;16.70;99.90
47600;DHT22;33323;52.124;6.018;2023-05-10T11:26:17;16.50;99.90
47600;DHT22;33323;52.124;6.018;2023-05-10T11:28:46;16.50;99.90
47600;DHT22;33323;52.124;6.018;2023-05-10T11:31:16;16.40;99.90
47600;DHT22;33323;52.124;6.018;2023-05-10T11:33:45;16.50;99.90
47600;DHT22;33323;52.124;6.018;2023-05-10T11:36:15;16.40;99.90
47600;DHT22;33323;52.124;6.018;2023-05-10T11:38:44;16.40;99.90
47600;DHT22;33323;52.124;6.018;2023-05-10T11:41:12;16.30;99.90
47600;DHT22;33323;52.124;6.018;2023-05-10T11:43:40;16.40;99.90
47600;DHT22;33323;52.124;6.018;2023-05-10T11:46:09;16.60;99.90
47600;DHT22;33323;52.124;6.018;2023-05-10T11:48:41;16.50;99.90
47600;DHT22;33323;52.124;6.018;2023-05-10T11:51:10;16.70;99.90
47600;DHT22;33323;52.124;6.018;2023-05-10T11:53:37;16.90;99.90
47600;DHT22;33323;52.124;6.018;2023-05-10T11:56:09;17.10;99.90
47600;DHT22;33323;52.124;6.018;2023-05-10T11:58:38;17.30;99.90
47600;DHT22;33323;52.124;6.018;2023-05-10T12:01:07;17.30;99.90
47600;DHT22;33323;52.124;6.018;2023-05-10T12:03:36;17.40;99.90
47600;DHT22;33323;52.124;6.018;2023-05-10T12:06:03;17.60;99.90
47600;DHT22;33323;52.124;6.018;2023-05-10T12:08:30;17.60;99.90
47600;DHT22;33323;52.124;6.018;2023-05-10T12:11:06;17.60;99.90
47600;DHT22;33323;52.124;6.018;2023-05-10T12:13:39;17.70;99.90
47600;DHT22;33323;52.124;6.018;2023-05-10T12:16:16;17.90;99.90
47600;DHT22;33323;52.124;6.018;2023-05-10T12:18:55;17.80;99.90
47600;DHT22;33323;52.124;6.018;2023-05-10T12:21:24;17.80;99.90
47600;DHT22;33323;52.124;6.018;2023-05-10T12:24:01;17.80;99.90
47600;DHT22;33323;52.124;6.018;2023-05-10T12:26:30;17.80;99.90
47600;DHT22;33323;52.124;6.018;2023-05-10T12:29:26;17.90;99.90
47600;DHT22;33323;52.124;6.018;2023-05-10T12:31:58;17.80;99.90
47600;DHT22;33323;52.124;6.018;2023-05-10T12:34:34;17.90;99.90
47600;DHT22;33323;52.124;6.018;2023-05-10T12:37:03;17.70;99.90
47600;DHT22;33323;52.124;6.018;2023-05-10T12:39:44;17.70;99.90
47600;DHT22;33323;52.124;6.018;2023-05-10T12:42:11;17.50;99.90
47600;DHT22;33323;52.124;6.018;2023-05-10T12:44:39;17.20;99.90
47600;DHT22;33323;52.124;6.018;2023-05-10T12:47:06;17.00;99.90
47600;DHT22;33323;52.124;6.018;2023-05-10T12:49:34;16.90;99.90
47600;DHT22;33323;52.124;6.018;2023-05-10T12:52:01;17.10;99.90
47600;DHT22;33323;52.124;6.018;2023-05-10T12:54:28;17.20;99.90
47600;DHT22;33323;52.124;6.018;2023-05-10T12:56:55;17.20;99.90
47600;DHT22;33323;52.124;6.018;2023-05-10T12:59:22;17.20;99.90
47600;DHT22;33323;52.124;6.018;2023-05-10T13:01:49;17.30;99.90
47600;DHT22;33323;52.124;6.018;2023-05-10T13:04:16;17.40;99.90
47600;DHT22;33323;52.124;6.018;2023-05-10T13:06:43;17.50;99.90
47600;DHT22;33323;52.124;6.018;2023-05-10T13:09:11;17.50;99.90
47600;DHT22;33323;52.124;6.018;2023-05-10T13:11:38;17.60;99.90
47600;DHT22;33323;52.124;6.018;2023-05-10T13:14:05;17.40;99.90
47600;DHT22;33323;52.124;6.018;2023-05-10T13:16:32;17.50;99.90
47600;DHT22;33323;52.124;6.018;2023-05-10T13:18:59;17.50;99.90
47600;DHT22;33323;52.124;6.018;2023-05-10T13:21:26;17.70;99.90
47600;DHT22;33323;52.124;6.018;2023-05-10T13:23:53;17.80;99.90
47600;DHT22;33323;52.124;6.018;2023-05-10T13:26:20;17.80;99.90
47600;DHT22;33323;52.124;6.018;2023-05-10T13:28:47;17.80;99.90
47600;DHT22;33323;52.124;6.018;2023-05-10T13:31:15;17.90;99.90
47600;DHT22;33323;52.124;6.018;2023-05-10T13:33:42;18.00;99.90
47600;DHT22;33323;52.124;6.018;2023-05-10T13:36:09;18.00;99.90
47600;DHT22;33323;52.124;6.018;2023-05-10T13:38:36;18.20;99.90
47600;DHT22;33323;52.124;6.018;2023-05-10T13:41:04;18.30;99.90
47600;DHT22;33323;52.124;6.018;2023-05-10T13:43:31;18.20;99.90
47600;DHT22;33323;52.124;6.018;2023-05-10T13:45:58;18.10;99.90
47600;DHT22;33323;52.124;6.018;2023-05-10T13:48:26;18.00;99.90
47600;DHT22;33323;52.124;6.018;2023-05-10T13:50:53;18.20;99.90
47600;DHT22;33323;52.124;6.018;2023-05-10T13:53:20;18.40;99.90
47600;DHT22;33323;52.124;6.018;2023-05-10T13:55:48;18.60;99.90
47600;DHT22;33323;52.124;6.018;2023-05-10T13:58:16;18.70;99.90
47600;DHT22;33323;52.124;6.018;2023-05-10T14:00:43;18.70;99.90
47600;DHT22;33323;52.124;6.018;2023-05-10T14:03:10;18.80;99.90
47600;DHT22;33323;52.124;6.018;2023-05-10T14:05:38;18.70;99.90
47600;DHT22;33323;52.124;6.018;2023-05-10T14:08:05;18.60;99.90
47600;DHT22;33323;52.124;6.018;2023-05-10T14:10:32;18.70;99.90
47600;DHT22;33323;52.124;6.018;2023-05-10T14:12:59;18.90;99.90
47600;DHT22;33323;52.124;6.018;2023-05-10T14:15:26;18.90;99.90
47600;DHT22;33323;52.124;6.018;2023-05-10T14:17:53;18.90;99.90
47600;DHT22;33323;52.124;6.018;2023-05-10T14:20:20;18.70;99.90
47600;DHT22;33323;52.124;6.018;2023-05-10T14:22:47;18.30;99.90
47600;DHT22;33323;52.124;6.018;2023-05-10T14:25:14;18.20;99.90
47600;DHT22;33323;52.124;6.018;2023-05-10T14:27:42;18.10;99.90
47600;DHT22;33323;52.124;6.018;2023-05-10T14:30:09;18.00;99.90
47600;DHT22;33323;52.124;6.018;2023-05-10T14:32:37;18.00;99.90
47600;DHT22;33323;52.124;6.018;2023-05-10T14:35:04;18.10;99.90
47600;DHT22;33323;52.124;6.018;2023-05-10T14:37:33;18.00;99.90
47600;DHT22;33323;52.124;6.018;2023-05-10T14:40:00;18.10;99.90
47600;DHT22;33323;52.124;6.018;2023-05-10T14:42:27;18.20;99.90
47600;DHT22;33323;52.124;6.018;2023-05-10T14:44:55;18.20;99.90
47600;DHT22;33323;52.124;6.018;2023-05-10T14:47:22;18.10;99.90
47600;DHT22;33323;52.124;6.018;2023-05-10T14:49:49;17.90;99.90
47600;DHT22;33323;52.124;6.018;2023-05-10T14:52:16;17.60;99.90
47600;DHT22;33323;52.124;6.018;2023-05-10T14:54:43;17.40;99.90
47600;DHT22;33323;52.124;6.018;2023-05-10T14:57:10;17.20;99.90
47600;DHT22;33323;52.124;6.018;2023-05-10T14:59:37;16.90;99.90
47600;DHT22;33323;52.124;6.018;2023-05-10T15:02:04;16.50;99.90
47600;DHT22;33323;52.124;6.018;2023-05-10T15:04:32;16.50;99.90
47600;DHT22;33323;52.124;6.018;2023-05-10T15:06:59;16.50;99.90
47600;DHT22;33323;52.124;6.018;2023-05-10T15:09:27;16.50;99.90
47600;DHT22;33323;52.124;6.018;2023-05-10T15:11:55;16.30;99.90
47600;DHT22;33323;52.124;6.018;2023-05-10T15:14:23;16.30;99.90
47600;DHT22;33323;52.124;6.018;2023-05-10T15:16:50;16.20;99.90
47600;DHT22;33323;52.124;6.018;2023-05-10T15:19:17;16.10;99.90
47600;DHT22;33323;52.124;6.018;2023-05-10T15:21:44;16.10;99.90
47600;DHT22;33323;52.124;6.018;2023-05-10T15:24:11;16.00;99.90
47600;DHT22;33323;52.124;6.018;2023-05-10T15:26:38;15.80;99.90
47600;DHT22;33323;52.124;6.018;2023-05-10T15:29:05;15.70;99.90
47600;DHT22;33323;52.124;6.018;2023-05-10T15:31:32;15.40;99.90
47600;DHT22;33323;52.124;6.018;2023-05-10T15:34:02;15.30;99.90
47600;DHT22;33323;52.124;6.018;2023-05-10T15:36:29;15.10;99.90
47600;DHT22;33323;52.124;6.018;2023-05-10T15:38:57;15.00;99.90
47600;DHT22;33323;52.124;6.018;2023-05-10T15:41:27;15.00;99.90
47600;DHT22;33323;52.124;6.018;2023-05-10T15:43:54;15.00;99.90
47600;DHT22;33323;52.124;6.018;2023-05-10T15:46:22;15.10;99.90
47600;DHT22;33323;52.124;6.018;2023-05-10T15:48:49;15.10;99.90
47600;DHT22;33323;52.124;6.018;2023-05-10T15:51:16;15.20;99.90
47600;DHT22;33323;52.124;6.018;2023-05-10T15:53:43;15.30;99.90
47600;DHT22;33323;52.124;6.018;2023-05-10T15:56:26;15.50;99.90
47600;DHT22;33323;52.124;6.018;2023-05-10T15:58:53;15.60;99.90
47600;DHT22;33323;52.124;6.018;2023-05-10T16:01:20;15.50;99.90
47600;DHT22;33323;52.124;6.018;2023-05-10T16:03:47;15.60;99.90
47600;DHT22;33323;52.124;6.018;2023-05-10T16:06:14;15.60;99.90
47600;DHT22;33323;52.124;6.018;2023-05-10T16:08:41;15.60;99.90
47600;DHT22;33323;52.124;6.018;2023-05-10T16:11:08;15.70;99.90
47600;DHT22;33323;52.124;6.018;2023-05-10T16:13:35;15.70;99.90
47600;DHT22;33323;52.124;6.018;2023-05-10T16:16:03;15.80;99.90
47600;DHT22;33323;52.124;6.018;2023-05-10T16:18:30;15.80;99.90
47600;DHT22;33323;52.124;6.018;2023-05-10T16:20:58;15.70;99.90
47600;DHT22;33323;52.124;6.018;2023-05-10T16:23:26;15.60;99.90